createdAt,value
2019-06-10T00:02:03.450Z,7.30
2019-06-10T00:04:31.393Z,3.12
2019-06-10T00:07:01.988Z,10.43
2019-06-10T00:09:31.320Z,2.80
2019-06-10T00:12:02.777Z,3.42
2019-06-10T00:14:31.586Z,4.70
2019-06-10T00:17:02.902Z,4.08
2019-06-10T00:19:31.716Z,3.00
2019-06-10T00:22:02.415Z,4.87
2019-06-10T00:24:31.625Z,5.67
2019-06-10T00:27:02.858Z,5.17
2019-06-10T00:29:31.588Z,6.90
2019-06-10T00:32:03.276Z,3.70
2019-06-10T00:34:31.641Z,5.58
2019-06-10T00:37:05.830Z,3.40
2019-06-10T00:39:32.893Z,4.77
2019-06-10T00:42:04.441Z,4.17
2019-06-10T00:44:32.379Z,4.03
2019-06-10T00:47:04.870Z,8.38
2019-06-10T00:49:32.662Z,3.75
2019-06-10T00:52:04.195Z,4.47
2019-06-10T00:54:33.018Z,3.25
2019-06-10T00:57:02.849Z,3.80
2019-06-10T00:59:32.588Z,3.17
2019-06-10T01:02:02.975Z,5.42
2019-06-10T01:04:32.103Z,4.60
2019-06-10T01:07:02.498Z,5.22
2019-06-10T01:09:32.117Z,4.70
2019-06-10T01:12:01.228Z,6.12
2019-06-10T01:14:31.989Z,4.85
2019-06-10T01:17:01.375Z,2.50
2019-06-10T01:19:31.070Z,4.42
2019-06-10T01:22:01.526Z,5.15
2019-06-10T01:24:31.415Z,2.40
2019-06-10T01:27:01.218Z,3.27
2019-06-10T01:29:32.639Z,4.65
2019-06-10T01:32:01.919Z,5.10
2019-06-10T01:34:31.188Z,4.87
2019-06-10T01:37:01.481Z,2.77
2019-06-10T01:39:30.998Z,5.80
2019-06-10T01:42:00.670Z,5.90
2019-06-10T01:44:31.027Z,10.00
2019-06-10T01:47:00.963Z,7.00
2019-06-10T01:49:30.793Z,4.20
2019-06-10T01:52:01.650Z,4.90
2019-06-10T01:54:31.642Z,5.10
2019-06-10T01:57:01.475Z,5.43
2019-06-10T01:59:31.340Z,4.30
2019-06-10T02:02:04.011Z,2.83
2019-06-10T02:04:33.182Z,3.47
2019-06-10T02:07:02.139Z,3.93
2019-06-10T02:09:31.216Z,4.28
2019-06-10T02:12:02.204Z,7.17
2019-06-10T02:14:31.820Z,3.80
2019-06-10T02:17:01.333Z,4.40
2019-06-10T02:19:31.371Z,6.67
2019-06-10T02:22:01.293Z,3.80
2019-06-10T02:24:31.607Z,4.70
2019-06-10T02:27:01.193Z,3.13
2019-06-10T02:29:30.751Z,3.52
2019-06-10T02:32:04.500Z,3.05
2019-06-10T02:34:34.157Z,5.33
2019-06-10T02:37:04.641Z,4.03
2019-06-10T02:39:38.275Z,5.60
2019-06-10T02:42:08.635Z,4.58
2019-06-10T02:44:37.989Z,4.78
2019-06-10T02:47:06.971Z,4.72
2019-06-10T02:49:55.787Z,2.80
2019-06-10T02:52:23.247Z,4.22
2019-06-10T02:54:53.635Z,4.40
2019-06-10T02:57:29.262Z,6.58
2019-06-10T02:59:54.448Z,2.52
2019-06-10T03:02:26.473Z,5.25
2019-06-10T03:04:53.554Z,5.40
2019-06-10T03:07:26.815Z,3.33
2019-06-10T03:09:53.916Z,5.12
2019-06-10T03:12:24.554Z,3.07
2019-06-10T03:14:53.539Z,5.50
2019-06-10T03:17:25.835Z,2.77
2019-06-10T03:19:55.017Z,3.30
2019-06-10T03:22:25.679Z,5.85
2019-06-10T03:24:54.565Z,4.03
2019-06-10T03:27:25.939Z,3.60
2019-06-10T03:29:54.286Z,5.33
2019-06-10T03:32:29.628Z,5.40
2019-06-10T03:34:55.086Z,2.35
2019-06-10T03:37:26.020Z,6.28
2019-06-10T03:39:54.664Z,3.70
2019-06-10T03:42:25.246Z,5.25
2019-06-10T03:44:54.386Z,3.77
2019-06-10T03:47:24.328Z,5.22
2019-06-10T03:49:56.299Z,4.60
2019-06-10T03:52:26.758Z,3.53
2019-06-10T03:54:56.385Z,3.80
2019-06-10T03:57:26.993Z,4.78
2019-06-10T03:59:56.445Z,5.30
2019-06-10T04:02:26.804Z,3.10
2019-06-10T04:04:55.936Z,3.97
2019-06-10T04:07:29.116Z,3.67
2019-06-10T04:09:55.725Z,4.33
2019-06-10T04:12:26.236Z,3.58
2019-06-10T04:14:55.238Z,5.00
2019-06-10T04:17:25.324Z,3.12
2019-06-10T04:20:07.881Z,4.20
2019-06-10T04:22:26.846Z,3.13
2019-06-10T04:24:56.590Z,3.57
2019-06-10T04:27:26.762Z,5.28
2019-06-10T04:29:57.059Z,4.22
2019-06-10T04:32:27.404Z,3.52
2019-06-10T04:34:56.471Z,3.35
2019-06-10T04:37:26.523Z,7.35
2019-06-10T04:39:57.595Z,4.67
2019-06-10T04:42:27.335Z,5.62
2019-06-10T04:44:56.329Z,4.40
2019-06-10T04:47:26.776Z,5.65
2019-06-10T04:49:56.149Z,5.33
2019-06-10T04:52:26.379Z,5.30
2019-06-10T04:54:55.634Z,4.72
2019-06-10T04:57:26.861Z,3.02
2019-06-10T04:59:55.946Z,5.53
2019-06-10T05:02:26.693Z,3.08
2019-06-10T05:04:55.842Z,3.98
2019-06-10T05:07:27.072Z,4.37
2019-06-10T05:09:55.778Z,4.10
2019-06-10T05:12:26.262Z,3.60
2019-06-10T05:14:55.706Z,4.00
2019-06-10T05:17:26.330Z,4.10
2019-06-10T05:19:55.801Z,3.75
2019-06-10T05:22:25.786Z,3.90
2019-06-10T05:24:55.882Z,4.03
2019-06-10T05:27:25.721Z,5.97
2019-06-10T05:29:55.225Z,4.55
2019-06-10T05:32:25.936Z,6.55
2019-06-10T05:34:55.347Z,4.12
2019-06-10T05:37:26.318Z,3.17
2019-06-10T05:39:55.216Z,4.42
2019-06-10T05:42:26.064Z,4.78
2019-06-10T05:44:54.568Z,9.40
2019-06-10T05:47:26.687Z,5.50
2019-06-10T05:49:54.133Z,3.80
2019-06-10T05:52:24.896Z,9.30
2019-06-10T05:54:53.844Z,7.62
2019-06-10T05:57:24.585Z,5.30
2019-06-10T05:59:53.585Z,7.08
2019-06-10T06:02:23.903Z,5.08
2019-06-10T06:04:53.212Z,5.83
2019-06-10T06:07:22.475Z,6.75
2019-06-10T06:09:53.285Z,4.17
2019-06-10T06:12:22.627Z,3.90
2019-06-10T06:14:52.803Z,6.03
2019-06-10T06:17:23.583Z,7.00
2019-06-10T06:19:53.436Z,5.90
2019-06-10T06:22:22.436Z,3.20
2019-06-10T06:24:52.284Z,5.83
2019-06-10T06:27:22.511Z,5.80
2019-06-10T06:29:52.431Z,4.85
2019-06-10T06:32:23.648Z,4.67
2019-06-10T06:34:52.882Z,5.17
2019-06-10T06:37:23.110Z,8.60
2019-06-10T06:39:52.407Z,6.00
2019-06-10T06:42:22.891Z,5.20
2019-06-10T06:44:52.647Z,5.70
2019-06-10T06:47:22.589Z,4.85
2019-06-10T06:49:53.079Z,5.45
2019-06-10T06:52:46.394Z,3.50
2019-06-10T06:54:53.995Z,8.13
2019-06-10T06:57:22.827Z,4.55
2019-06-10T06:59:52.640Z,5.78
2019-06-10T07:02:22.724Z,4.83
2019-06-10T07:04:52.623Z,5.47
2019-06-10T07:07:22.344Z,5.27
2019-06-10T07:09:52.613Z,3.35
2019-06-10T07:12:23.957Z,6.03
2019-06-10T07:14:53.478Z,6.53
2019-06-10T07:17:22.836Z,4.25
2019-06-10T07:19:53.022Z,4.72
2019-06-10T07:22:23.329Z,4.65
2019-06-10T07:24:52.917Z,5.90
2019-06-10T07:27:22.599Z,5.43
2019-06-10T07:29:53.028Z,4.95
2019-06-10T07:32:22.699Z,4.53
2019-06-10T07:34:52.515Z,5.00
2019-06-10T07:37:23.198Z,8.00
2019-06-10T07:39:52.507Z,4.65
2019-06-10T07:42:22.775Z,4.12
2019-06-10T07:44:53.171Z,5.67
2019-06-10T07:47:23.127Z,5.17
2019-06-10T07:49:52.427Z,3.70
2019-06-10T07:52:23.579Z,6.45
2019-06-10T07:54:52.937Z,7.17
2019-06-10T07:57:22.616Z,16.70
2019-06-10T07:59:52.389Z,10.28
2019-06-10T08:02:23.142Z,5.30
2019-06-10T08:04:54.315Z,6.87
2019-06-10T08:07:23.084Z,8.33
2019-06-10T08:09:53.240Z,7.03
2019-06-10T08:12:23.319Z,7.58
2019-06-10T08:14:53.371Z,9.03
2019-06-10T08:17:22.752Z,8.25
2019-06-10T08:19:54.175Z,6.25
2019-06-10T08:22:31.325Z,6.65
2019-06-10T08:24:52.789Z,8.58
2019-06-10T08:27:22.701Z,10.60
2019-06-10T08:30:13.154Z,8.55
2019-06-10T08:32:24.464Z,7.37
2019-06-10T08:34:53.523Z,6.83
2019-06-10T08:37:23.453Z,6.10
2019-06-10T08:39:53.215Z,7.78
2019-06-10T08:42:23.362Z,14.23
2019-06-10T08:44:53.461Z,13.60
2019-06-10T08:47:23.052Z,9.78
2019-06-10T08:49:53.113Z,31.02
2019-06-10T08:52:23.709Z,17.15
2019-06-10T08:54:54.398Z,9.90
2019-06-10T08:57:24.012Z,16.67
2019-06-10T08:59:53.376Z,20.32
2019-06-10T09:02:23.094Z,9.70
2019-06-10T09:04:53.510Z,20.77
2019-06-10T09:07:23.841Z,15.53
2019-06-10T09:09:53.999Z,11.03
2019-06-10T09:12:30.461Z,15.63
2019-06-10T09:14:53.851Z,6.53
2019-06-10T09:17:23.017Z,8.45
2019-06-10T09:19:54.222Z,20.23
2019-06-10T09:22:23.621Z,40.12
2019-06-10T09:24:56.117Z,33.60
2019-06-10T09:27:26.718Z,9.10
2019-06-10T09:29:55.460Z,4.83
2019-06-10T09:32:24.820Z,6.58
2019-06-10T09:34:57.441Z,6.67
2019-06-10T09:37:24.514Z,27.62
2019-06-10T09:39:59.083Z,58.35
2019-06-10T09:42:24.608Z,35.10
2019-06-10T09:44:55.695Z,15.45
2019-06-10T09:47:24.241Z,12.95
2019-06-10T09:49:55.598Z,13.53
2019-06-10T09:52:24.646Z,7.10
2019-06-10T09:54:56.765Z,8.23
2019-06-10T09:57:24.611Z,9.60
2019-06-10T09:59:56.267Z,4.95
2019-06-10T10:02:24.528Z,5.92
2019-06-10T10:04:58.120Z,10.25
2019-06-10T10:07:24.597Z,7.30
2019-06-10T10:09:56.983Z,6.92
2019-06-10T10:12:25.068Z,7.72
2019-06-10T10:16:23.546Z,5.17
2019-06-10T10:19:00.279Z,5.50
2019-06-10T10:21:23.062Z,6.92
2019-06-10T10:24:06.249Z,10.18
2019-06-10T10:26:22.558Z,10.88
2019-06-10T10:28:53.261Z,9.18
2019-06-10T10:31:23.946Z,15.10
2019-06-10T10:33:52.939Z,7.30
2019-06-10T10:36:22.569Z,10.65
2019-06-10T10:38:52.336Z,6.87
2019-06-10T10:41:24.078Z,5.95
2019-06-10T10:43:58.173Z,8.40
2019-06-10T10:46:24.206Z,6.80
2019-06-10T10:48:55.179Z,7.95
2019-06-10T10:51:23.583Z,7.40
2019-06-10T10:54:20.121Z,6.35
2019-06-10T10:56:23.116Z,9.27
2019-06-10T10:58:55.858Z,5.95
2019-06-10T11:01:23.780Z,6.85
2019-06-10T11:03:58.807Z,7.22
2019-06-10T11:06:23.523Z,5.50
2019-06-10T11:08:55.821Z,8.93
2019-06-10T11:11:23.782Z,8.20
2019-06-10T11:13:56.690Z,7.17
2019-06-10T11:16:23.567Z,6.87
2019-06-10T11:18:56.170Z,8.40
2019-06-10T11:21:23.392Z,9.33
2019-06-10T11:23:56.350Z,6.95
2019-06-10T11:26:26.103Z,7.97
2019-06-10T11:28:55.612Z,10.82
2019-06-10T11:31:24.300Z,8.75
2019-06-10T11:33:55.964Z,9.33
2019-06-10T11:36:24.340Z,5.92
2019-06-10T11:38:56.677Z,7.90
2019-06-10T11:41:23.852Z,6.20
2019-06-10T11:43:56.054Z,7.45
2019-06-10T11:46:23.522Z,5.80
2019-06-10T11:48:55.599Z,7.28
2019-06-10T11:51:23.653Z,5.08
2019-06-10T11:53:54.577Z,9.53
2019-06-10T11:56:23.271Z,7.17
2019-06-10T11:58:55.136Z,6.40
2019-06-10T12:01:23.019Z,4.77
2019-06-10T12:03:54.126Z,7.50
2019-06-10T12:06:23.000Z,4.40
2019-06-10T12:08:57.408Z,4.92
2019-06-10T12:11:23.184Z,7.00
2019-06-10T12:13:57.812Z,4.25
2019-06-10T12:18:56.984Z,5.80
2019-06-10T12:21:25.383Z,8.55
2019-06-10T12:23:58.614Z,5.67
2019-06-10T12:26:25.192Z,5.67
2019-06-10T12:28:56.301Z,7.12
2019-06-10T12:31:24.822Z,5.40
2019-06-10T12:33:57.129Z,7.37
2019-06-10T12:36:24.334Z,6.83
2019-06-10T12:38:56.455Z,4.95
2019-06-10T12:41:24.163Z,6.30
2019-06-10T12:43:54.718Z,6.75
2019-06-10T12:46:23.711Z,10.40
2019-06-10T12:48:54.058Z,4.97
2019-06-10T12:51:23.252Z,6.10
2019-06-10T12:53:53.258Z,7.08
2019-06-10T12:56:22.764Z,5.50
2019-06-10T12:58:54.062Z,7.42
2019-06-10T13:01:22.522Z,6.65
2019-06-10T13:03:53.628Z,4.87
2019-06-10T13:06:23.506Z,8.80
2019-06-10T13:08:54.077Z,7.80
2019-06-10T13:11:24.804Z,6.55
2019-06-10T13:13:54.091Z,6.87
2019-06-10T13:16:23.082Z,6.97
2019-06-10T13:18:52.505Z,4.05
2019-06-10T13:21:22.807Z,7.10
2019-06-10T13:23:54.123Z,6.10
2019-06-10T13:26:23.144Z,4.22
2019-06-10T13:28:52.717Z,6.53
2019-06-10T13:31:23.461Z,5.53
2019-06-10T13:33:52.984Z,4.55
2019-06-10T13:36:25.958Z,5.85
2019-06-10T13:38:53.433Z,5.92
2019-06-10T13:41:22.849Z,4.70
2019-06-10T13:43:52.671Z,4.37
2019-06-10T13:46:24.654Z,6.65
2019-06-10T13:48:53.111Z,5.87
2019-06-10T13:51:22.023Z,4.87
2019-06-10T13:53:53.573Z,4.60
2019-06-10T13:56:41.719Z,4.37
2019-06-10T13:58:52.746Z,4.45
2019-06-10T14:01:22.402Z,6.07
2019-06-10T14:03:53.794Z,5.30
2019-06-10T14:06:39.621Z,6.35
2019-06-10T14:08:54.873Z,5.53
2019-06-10T14:11:26.967Z,4.72
2019-06-10T14:13:54.717Z,6.00
2019-06-10T14:16:23.949Z,5.92
2019-06-10T14:18:54.146Z,4.80
2019-06-10T14:21:23.738Z,5.25
2019-06-10T14:23:53.797Z,5.33
2019-06-10T14:26:36.438Z,6.50
2019-06-10T14:28:53.777Z,7.17
2019-06-10T14:31:39.468Z,5.12
2019-06-10T14:33:53.353Z,6.95
2019-06-10T14:36:22.314Z,4.55
2019-06-10T14:38:51.490Z,5.87
2019-06-10T14:41:25.642Z,7.05
2019-06-10T14:43:53.086Z,6.72
2019-06-10T14:46:23.082Z,5.67
2019-06-10T14:48:53.259Z,6.75
2019-06-10T14:51:22.900Z,6.87
2019-06-10T14:53:52.000Z,4.65
2019-06-10T14:56:23.370Z,6.47
2019-06-10T14:58:52.967Z,6.08
2019-06-10T15:01:25.280Z,8.95
2019-06-10T15:03:53.705Z,7.28
2019-06-10T15:06:22.859Z,8.08
2019-06-10T15:08:53.321Z,5.47
2019-06-10T15:11:23.339Z,6.40
2019-06-10T15:13:53.376Z,10.98
2019-06-10T15:16:23.748Z,10.78
2019-06-10T15:18:53.226Z,7.15
2019-06-10T15:21:23.181Z,5.55
2019-06-10T15:23:52.439Z,7.67
2019-06-10T15:26:21.357Z,8.40
2019-06-10T15:28:52.251Z,6.40
2019-06-10T15:31:21.188Z,5.47
2019-06-10T15:33:52.452Z,10.55
2019-06-10T15:36:21.778Z,8.30
2019-06-10T15:38:52.556Z,8.23
2019-06-10T15:41:24.392Z,8.18
2019-06-10T15:43:53.079Z,7.33
2019-06-10T15:46:22.095Z,13.13
2019-06-10T15:48:53.889Z,5.83
2019-06-10T15:51:25.952Z,6.75
2019-06-10T15:53:52.290Z,9.75
2019-06-10T15:56:35.295Z,9.10
2019-06-10T15:58:52.265Z,8.08
2019-06-10T16:01:25.400Z,8.03
2019-06-10T16:06:06.233Z,11.00
2019-06-10T16:08:35.094Z,9.03
2019-06-10T16:11:04.319Z,11.25
2019-06-10T16:13:35.047Z,10.13
2019-06-10T16:16:03.998Z,8.90
2019-06-10T16:18:33.144Z,14.35
2019-06-10T16:21:04.315Z,14.28
2019-06-10T16:23:33.917Z,12.00
2019-06-10T16:26:03.350Z,12.23
2019-06-10T16:28:33.031Z,10.35
2019-06-10T16:31:02.826Z,13.62
2019-06-10T16:33:33.225Z,15.80
2019-06-10T16:36:03.197Z,14.63
2019-06-10T16:38:32.864Z,11.90
2019-06-10T16:41:03.525Z,9.13
2019-06-10T16:43:33.800Z,6.03
2019-06-10T16:46:03.470Z,7.28
2019-06-10T16:48:33.614Z,13.63
2019-06-10T16:51:03.559Z,8.68
2019-06-10T16:53:35.651Z,10.82
2019-06-10T16:56:04.115Z,14.03
2019-06-10T16:58:34.040Z,7.90
2019-06-10T17:01:04.039Z,9.35
2019-06-10T17:03:34.099Z,9.75
2019-06-10T17:06:03.097Z,9.13
2019-06-10T17:08:33.424Z,10.98
2019-06-10T17:11:03.376Z,9.33
2019-06-10T17:13:32.592Z,9.85
2019-06-10T17:16:03.468Z,13.13
2019-06-10T17:18:33.676Z,13.40
2019-06-10T17:21:04.693Z,12.20
2019-06-10T17:23:36.554Z,10.35
2019-06-10T17:26:04.469Z,13.75
2019-06-10T17:28:36.685Z,14.18
2019-06-10T17:31:04.195Z,12.67
2019-06-10T17:33:35.613Z,10.18
2019-06-10T17:36:04.078Z,11.70
2019-06-10T17:38:33.108Z,12.28
2019-06-10T17:41:02.886Z,15.78
2019-06-10T17:43:33.980Z,16.25
2019-06-10T17:46:03.351Z,10.95
2019-06-10T17:48:33.854Z,17.30
2019-06-10T17:51:02.887Z,15.05
2019-06-10T17:53:34.665Z,13.03
2019-06-10T17:56:03.183Z,11.48
2019-06-10T17:58:47.522Z,15.05
2019-06-10T18:01:04.047Z,13.62
2019-06-10T18:03:33.458Z,12.70
2019-06-10T18:06:02.911Z,12.80
2019-06-10T18:08:34.991Z,12.85
2019-06-10T18:11:03.295Z,13.93
2019-06-10T18:13:34.339Z,13.55
2019-06-10T18:16:03.371Z,13.53
2019-06-10T18:18:35.650Z,16.60
2019-06-10T18:21:03.570Z,16.35
2019-06-10T18:23:33.094Z,13.68
2019-06-10T18:26:03.341Z,12.90
2019-06-10T18:28:40.366Z,13.80
2019-06-10T18:31:02.913Z,12.80
2019-06-10T18:33:34.532Z,11.43
2019-06-10T18:36:02.844Z,11.65
2019-06-10T18:38:33.936Z,14.13
2019-06-10T18:43:49.407Z,11.80
2019-06-10T18:46:18.610Z,12.10
2019-06-10T18:48:47.874Z,15.10
2019-06-10T18:51:16.732Z,10.88
2019-06-10T18:53:45.965Z,13.35
2019-06-10T18:56:15.134Z,12.03
2019-06-10T18:58:44.106Z,14.50
2019-06-10T19:01:13.093Z,14.87
2019-06-10T19:03:42.972Z,14.73
2019-06-10T19:06:12.730Z,14.58
2019-06-10T19:08:44.344Z,13.25
2019-06-10T19:11:12.702Z,13.72
2019-06-10T19:13:43.540Z,13.68
2019-06-10T19:16:12.930Z,14.00
2019-06-10T19:18:43.210Z,13.90
2019-06-10T19:21:13.283Z,14.10
2019-06-10T19:23:43.878Z,15.03
2019-06-10T19:26:13.824Z,16.77
2019-06-10T19:28:45.117Z,13.43
2019-06-10T19:31:13.847Z,13.75
2019-06-10T19:33:45.024Z,13.35
2019-06-10T19:36:14.000Z,12.20
2019-06-10T19:38:44.378Z,11.95
2019-06-10T19:41:13.564Z,11.43
2019-06-10T19:43:45.271Z,10.90
2019-06-10T19:46:13.415Z,11.90
2019-06-10T19:48:55.448Z,8.65
2019-06-10T19:51:12.934Z,11.33
2019-06-10T19:53:43.878Z,10.60
2019-06-10T19:56:13.072Z,12.55
2019-06-10T19:58:43.407Z,11.33
2019-06-10T20:01:12.733Z,13.32
2019-06-10T20:03:46.361Z,14.85
2019-06-10T20:06:13.225Z,13.53
2019-06-10T20:08:44.139Z,11.13
2019-06-10T20:11:13.445Z,11.85
2019-06-10T20:13:43.659Z,9.45
2019-06-10T20:16:13.107Z,11.15
2019-06-10T20:18:45.746Z,12.33
2019-06-10T20:21:13.408Z,12.70
2019-06-10T20:23:44.617Z,13.97
2019-06-10T20:26:13.645Z,12.65
2019-06-10T20:28:43.766Z,15.60
2019-06-10T20:31:13.918Z,15.90
2019-06-10T20:33:43.355Z,18.00
2019-06-10T20:36:21.634Z,19.87
2019-06-10T20:38:48.230Z,19.65
2019-06-10T20:41:14.613Z,17.12
2019-06-10T20:43:44.387Z,19.07
2019-06-10T20:46:14.716Z,17.82
2019-06-10T20:48:47.242Z,25.97
2019-06-10T20:51:15.139Z,22.62
2019-06-10T20:53:45.904Z,21.87
2019-06-10T20:56:14.813Z,20.35
2019-06-10T20:58:46.078Z,20.02
2019-06-10T21:01:14.484Z,18.80
2019-06-10T21:03:44.527Z,17.67
2019-06-10T21:06:14.941Z,18.12
2019-06-10T21:08:47.712Z,18.50
2019-06-10T21:11:14.764Z,17.55
2019-06-10T21:13:48.777Z,16.87
2019-06-10T21:16:14.773Z,19.73
2019-06-10T21:18:46.902Z,18.07
2019-06-10T21:21:14.633Z,14.33
2019-06-10T21:23:45.846Z,14.60
2019-06-10T21:26:14.334Z,14.87
2019-06-10T21:28:46.063Z,12.28
2019-06-10T21:31:14.594Z,15.83
2019-06-10T21:33:45.900Z,15.60
2019-06-10T21:36:14.719Z,16.67
2019-06-10T21:38:44.845Z,14.98
2019-06-10T21:41:14.321Z,14.53
2019-06-10T21:43:49.033Z,14.05
2019-06-10T21:46:13.873Z,16.87
2019-06-10T21:48:44.465Z,18.00
2019-06-10T21:51:13.336Z,19.98
2019-06-10T21:53:42.449Z,23.10
2019-06-10T21:56:12.790Z,23.77
2019-06-10T21:58:43.551Z,20.97
2019-06-10T22:01:16.746Z,18.37
2019-06-10T22:03:50.007Z,21.25
2019-06-10T22:06:14.116Z,22.60
2019-06-10T22:08:44.201Z,23.20
2019-06-10T22:11:13.929Z,20.88
2019-06-10T22:13:44.089Z,28.15
2019-06-10T22:16:13.248Z,19.63
2019-06-10T22:18:42.454Z,23.47
2019-06-10T22:21:14.590Z,24.85
2019-06-10T22:23:42.383Z,31.03
2019-06-10T22:26:13.046Z,23.92
2019-06-10T22:28:43.257Z,21.30
2019-06-10T22:31:22.453Z,30.37
2019-06-10T22:33:43.476Z,28.27
2019-06-10T22:36:13.057Z,21.80
2019-06-10T22:38:42.042Z,23.87
2019-06-10T22:41:12.306Z,20.62
2019-06-10T22:43:42.686Z,24.67
2019-06-10T22:46:11.931Z,25.95
2019-06-10T22:48:42.500Z,23.02
2019-06-10T22:51:12.287Z,24.57
2019-06-10T22:53:42.539Z,28.23
2019-06-10T22:56:12.318Z,24.65
2019-06-10T22:58:41.403Z,27.98
2019-06-10T23:01:12.483Z,24.98
2019-06-10T23:03:41.458Z,23.70
2019-06-10T23:06:12.478Z,24.05
2019-06-10T23:08:43.666Z,26.27
2019-06-10T23:11:13.025Z,27.13
2019-06-10T23:13:42.493Z,28.17
2019-06-10T23:16:13.029Z,29.65
2019-06-10T23:18:42.467Z,26.20
2019-06-10T23:21:13.429Z,28.80
2019-06-10T23:23:43.108Z,29.45
2019-06-10T23:26:13.056Z,29.52
2019-06-10T23:28:42.185Z,25.43
2019-06-10T23:31:12.747Z,28.67
2019-06-10T23:33:42.578Z,31.90
2019-06-10T23:36:13.030Z,31.70
2019-06-10T23:38:43.228Z,32.80
2019-06-10T23:41:12.982Z,29.18
2019-06-10T23:43:42.438Z,31.68
2019-06-10T23:46:12.104Z,28.12
2019-06-10T23:48:42.374Z,29.23
2019-06-10T23:51:12.121Z,30.23
2019-06-10T23:53:41.126Z,29.33
2019-06-10T23:56:12.690Z,27.93
2019-06-10T23:58:43.180Z,26.20
